createdAt,value
2018-08-14T00:00:33.884Z,100324.73
2018-08-14T00:02:39.367Z,100314.06
2018-08-14T00:04:44.388Z,100327.36
2018-08-14T00:06:49.161Z,100326.04
2018-08-14T00:08:54.172Z,100330.28
2018-08-14T00:10:59.060Z,100333.44
2018-08-14T00:13:04.014Z,100338.81
2018-08-14T00:15:13.346Z,100338.70
2018-08-14T00:17:18.366Z,100336.98
2018-08-14T00:19:23.660Z,100337.81
2018-08-14T00:21:28.408Z,100334.21
2018-08-14T00:23:33.314Z,100341.63
2018-08-14T00:25:38.172Z,100334.30
2018-08-14T00:27:43.064Z,100334.30
2018-08-14T00:29:47.885Z,100332.03
2018-08-14T00:31:52.642Z,100328.11
2018-08-14T00:33:57.501Z,100321.45
2018-08-14T00:36:02.324Z,100331.42
2018-08-14T00:38:07.935Z,100329.20
2018-08-14T00:40:16.510Z,100328.34
2018-08-14T00:42:22.404Z,100332.63
2018-08-14T00:44:27.212Z,100322.21
2018-08-14T00:46:32.146Z,100331.78
2018-08-14T00:48:36.959Z,100330.75
2018-08-14T00:50:41.916Z,100329.98
2018-08-14T00:52:47.266Z,100330.66
2018-08-14T00:54:51.965Z,100325.76
2018-08-14T00:56:56.754Z,100331.81
2018-08-14T00:59:01.756Z,100332.72
2018-08-14T01:01:06.689Z,100332.65
2018-08-14T01:03:13.606Z,100324.53
2018-08-14T01:05:19.406Z,100326.83
2018-08-14T01:07:24.425Z,100325.45
2018-08-14T01:09:29.267Z,100326.86
2018-08-14T01:11:34.066Z,100332.27
2018-08-14T01:13:38.886Z,100326.41
2018-08-14T01:15:44.601Z,100335.47
2018-08-14T01:17:51.672Z,100338.68
2018-08-14T01:19:56.577Z,100334.67
2018-08-14T01:22:01.393Z,100335.56
2018-08-14T01:24:06.224Z,100336.14
2018-08-14T01:26:11.006Z,100334.79
2018-08-14T01:28:15.787Z,100339.55
2018-08-14T01:30:26.681Z,100343.16
2018-08-14T01:32:31.571Z,100341.17
2018-08-14T01:34:36.659Z,100341.44
2018-08-14T01:36:41.452Z,100346.23
2018-08-14T01:38:46.273Z,100347.76
2018-08-14T01:40:51.004Z,100351.66
2018-08-14T01:42:55.996Z,100344.30
2018-08-14T01:45:00.818Z,100342.84
2018-08-14T01:47:05.839Z,100340.88
2018-08-14T01:49:11.253Z,100346.10
2018-08-14T01:51:16.186Z,100342.89
2018-08-14T01:53:21.071Z,100344.12
2018-08-14T01:55:26.200Z,100342.91
2018-08-14T01:57:31.000Z,100348.37
2018-08-14T01:59:35.723Z,100350.86
2018-08-14T02:01:40.539Z,100347.31
2018-08-14T02:03:45.371Z,100354.36
2018-08-14T02:05:50.170Z,100345.52
2018-08-14T02:07:54.984Z,100352.17
2018-08-14T02:09:59.748Z,100350.39
2018-08-14T02:12:04.476Z,100346.84
2018-08-14T02:14:09.297Z,100351.52
2018-08-14T02:16:14.166Z,100345.56
2018-08-14T02:18:19.214Z,100349.41
2018-08-14T02:20:24.831Z,100349.53
2018-08-14T02:22:29.768Z,100351.32
2018-08-14T02:24:34.699Z,100351.88
2018-08-14T02:26:39.624Z,100349.59
2018-08-14T02:28:44.468Z,100346.03
2018-08-14T02:30:49.348Z,100344.67
2018-08-14T02:32:54.341Z,100348.59
2018-08-14T02:34:59.529Z,100347.74
2018-08-14T02:37:04.295Z,100356.85
2018-08-14T02:39:11.679Z,100354.30
2018-08-14T02:41:16.560Z,100357.31
2018-08-14T02:43:21.407Z,100355.86
2018-08-14T02:45:26.156Z,100349.82
2018-08-14T02:47:31.014Z,100363.30
2018-08-14T02:49:35.717Z,100362.52
2018-08-14T02:51:40.581Z,100355.54
2018-08-14T02:53:45.522Z,100351.19
2018-08-14T02:55:50.427Z,100356.72
2018-08-14T02:57:55.279Z,100363.00
2018-08-14T03:00:00.185Z,100361.02
2018-08-14T03:02:05.156Z,100357.02
2018-08-14T03:04:10.013Z,100352.96
2018-08-14T03:06:14.749Z,100349.75
2018-08-14T03:08:19.662Z,100350.95
2018-08-14T03:10:24.597Z,100357.09
2018-08-14T03:12:29.378Z,100359.92
2018-08-14T03:14:34.259Z,100366.88
2018-08-14T03:16:39.074Z,100366.57
2018-08-14T03:18:44.014Z,100375.23
2018-08-14T03:20:48.892Z,100369.80
2018-08-14T03:22:54.018Z,100378.28
2018-08-14T03:24:58.889Z,100365.66
2018-08-14T03:27:03.676Z,100372.18
2018-08-14T03:29:08.591Z,100376.83
2018-08-14T03:31:13.383Z,100381.09
2018-08-14T03:33:18.440Z,100375.59
2018-08-14T03:35:23.527Z,100379.05
2018-08-14T03:37:28.320Z,100377.20
2018-08-14T03:39:33.116Z,100382.16
2018-08-14T03:41:38.008Z,100379.34
2018-08-14T03:43:42.774Z,100385.58
2018-08-14T03:45:47.655Z,100386.66
2018-08-14T03:47:52.521Z,100386.42
2018-08-14T03:49:57.253Z,100382.34
2018-08-14T03:52:02.123Z,100394.65
2018-08-14T03:54:06.960Z,100391.62
2018-08-14T03:56:11.849Z,100393.66
2018-08-14T03:58:16.730Z,100396.14
2018-08-14T04:00:21.543Z,100392.81
2018-08-14T04:02:26.558Z,100403.16
2018-08-14T04:04:31.513Z,100391.45
2018-08-14T04:06:36.432Z,100405.33
2018-08-14T04:08:41.259Z,100399.37
2018-08-14T04:10:46.178Z,100403.72
2018-08-14T04:12:50.924Z,100408.29
2018-08-14T04:14:56.169Z,100411.62
2018-08-14T04:17:01.080Z,100415.52
2018-08-14T04:19:07.021Z,100407.53
2018-08-14T04:21:11.746Z,100417.36
2018-08-14T04:23:16.556Z,100420.59
2018-08-14T04:25:21.529Z,100418.62
2018-08-14T04:27:26.549Z,100430.86
2018-08-14T04:29:31.484Z,100423.39
2018-08-14T04:31:36.342Z,100421.23
2018-08-14T04:33:41.158Z,100417.67
2018-08-14T04:35:45.936Z,100416.19
2018-08-14T04:37:50.811Z,100419.27
2018-08-14T04:39:55.615Z,100418.34
2018-08-14T04:42:00.453Z,100426.95
2018-08-14T04:44:05.344Z,100426.44
2018-08-14T04:46:10.165Z,100431.91
2018-08-14T04:48:15.157Z,100438.56
2018-08-14T04:50:20.573Z,100441.83
2018-08-14T04:52:25.597Z,100442.91
2018-08-14T04:54:31.878Z,100447.26
2018-08-14T04:56:36.876Z,100452.78
2018-08-14T04:58:41.801Z,100443.73
2018-08-14T05:00:46.778Z,100453.70
2018-08-14T05:02:51.702Z,100459.55
2018-08-14T05:04:56.603Z,100464.00
2018-08-14T05:07:01.628Z,100462.86
2018-08-14T05:09:11.893Z,100464.59
2018-08-14T05:11:16.733Z,100472.28
2018-08-14T05:13:22.001Z,100476.33
2018-08-14T05:15:27.022Z,100474.98
2018-08-14T05:17:32.030Z,100478.92
2018-08-14T05:19:37.288Z,100476.78
2018-08-14T05:21:42.258Z,100481.58
2018-08-14T05:23:47.136Z,100483.73
2018-08-14T05:25:52.100Z,100486.03
2018-08-14T05:27:56.946Z,100482.92
2018-08-14T05:30:02.070Z,100487.99
2018-08-14T05:32:07.218Z,100486.95
2018-08-14T05:34:12.206Z,100491.69
2018-08-14T05:36:17.167Z,100492.80
2018-08-14T05:38:22.133Z,100486.48
2018-08-14T05:40:27.133Z,100492.52
2018-08-14T05:42:31.965Z,100494.96
2018-08-14T05:44:36.835Z,100486.69
2018-08-14T05:46:41.875Z,100502.69
2018-08-14T05:48:46.653Z,100506.97
2018-08-14T05:50:51.551Z,100499.14
2018-08-14T05:52:56.781Z,100506.97
2018-08-14T05:55:01.805Z,100500.66
2018-08-14T05:57:06.572Z,100506.14
2018-08-14T05:59:11.924Z,100513.23
2018-08-14T06:01:16.670Z,100502.27
2018-08-14T06:03:21.567Z,100514.23
2018-08-14T06:05:26.555Z,100510.67
2018-08-14T06:07:31.411Z,100510.91
2018-08-14T06:09:36.358Z,100514.59
2018-08-14T06:11:42.160Z,100516.27
2018-08-14T06:13:47.112Z,100517.20
2018-08-14T06:15:52.072Z,100519.72
2018-08-14T06:18:00.732Z,100523.23
2018-08-14T06:20:07.979Z,100517.78
2018-08-14T06:22:13.101Z,100517.40
2018-08-14T06:24:18.021Z,100524.06
2018-08-14T06:26:22.960Z,100539.40
2018-08-14T06:28:28.853Z,100531.41
2018-08-14T06:30:33.966Z,100538.87
2018-08-14T06:32:39.160Z,100539.45
2018-08-14T06:34:44.185Z,100541.42
2018-08-14T06:36:49.173Z,100550.71
2018-08-14T06:38:54.775Z,100547.17
2018-08-14T06:41:00.322Z,100548.43
2018-08-14T06:43:05.325Z,100558.09
2018-08-14T06:45:13.380Z,100549.95
2018-08-14T06:47:18.476Z,100563.01
2018-08-14T06:49:23.440Z,100560.52
2018-08-14T06:51:28.694Z,100568.64
2018-08-14T06:53:33.682Z,100571.34
2018-08-14T06:55:38.585Z,100578.17
2018-08-14T06:57:44.608Z,100580.16
2018-08-14T06:59:49.492Z,100582.06
2018-08-14T07:01:54.514Z,100596.17
2018-08-14T07:04:00.805Z,100591.69
2018-08-14T07:06:06.291Z,100595.92
2018-08-14T07:08:11.263Z,100599.01
2018-08-14T07:10:16.226Z,100601.88
2018-08-14T07:12:21.587Z,100602.27
2018-08-14T07:14:27.246Z,100604.56
2018-08-14T07:16:32.584Z,100609.61
2018-08-14T07:18:37.909Z,100611.60
2018-08-14T07:20:43.200Z,100614.01
2018-08-14T07:22:48.249Z,100616.00
2018-08-14T07:24:53.224Z,100612.28
2018-08-14T07:26:58.142Z,100606.84
2018-08-14T07:29:04.707Z,100617.23
2018-08-14T07:31:09.856Z,100620.98
2018-08-14T07:33:14.859Z,100623.20
2018-08-14T07:35:19.921Z,100629.81
2018-08-14T07:37:25.032Z,100629.28
2018-08-14T07:39:30.579Z,100627.64
2018-08-14T07:41:35.764Z,100637.22
2018-08-14T07:43:40.683Z,100642.28
2018-08-14T07:45:46.052Z,100639.98
2018-08-14T07:47:50.947Z,100646.34
2018-08-14T07:49:55.963Z,100641.41
2018-08-14T07:52:00.927Z,100645.55
2018-08-14T07:54:06.030Z,100650.11
2018-08-14T07:56:11.288Z,100648.55
2018-08-14T07:58:16.298Z,100652.55
2018-08-14T08:00:22.215Z,100654.27
2018-08-14T08:02:27.030Z,100660.80
2018-08-14T08:04:32.233Z,100661.94
2018-08-14T08:06:37.187Z,100635.61
2018-08-14T08:08:44.592Z,100664.44
2018-08-14T08:10:50.141Z,100663.94
2018-08-14T08:12:55.100Z,100659.23
2018-08-14T08:15:00.358Z,100664.00
2018-08-14T08:17:05.349Z,100669.12
2018-08-14T08:19:10.924Z,100667.50
2018-08-14T08:21:15.837Z,100678.97
2018-08-14T08:23:20.810Z,100671.27
2018-08-14T08:25:26.715Z,100670.40
2018-08-14T08:27:31.781Z,100687.17
2018-08-14T08:29:36.716Z,100673.50
2018-08-14T08:31:41.805Z,100680.05
2018-08-14T08:33:46.909Z,100677.48
2018-08-14T08:35:51.790Z,100680.34
2018-08-14T08:37:57.028Z,100679.88
2018-08-14T08:40:01.809Z,100679.39
2018-08-14T08:42:06.877Z,100680.53
2018-08-14T08:44:11.955Z,100690.00
2018-08-14T08:46:16.869Z,100695.98
2018-08-14T08:48:23.272Z,100689.62
2018-08-14T08:50:28.534Z,100694.89
2018-08-14T08:52:33.542Z,100695.69
2018-08-14T08:54:38.784Z,100696.09
2018-08-14T08:56:43.873Z,100701.41
2018-08-14T08:58:49.915Z,100701.04
2018-08-14T09:00:55.248Z,100698.13
2018-08-14T09:03:00.345Z,100694.69
2018-08-14T09:05:06.427Z,100695.82
2018-08-14T09:07:11.588Z,100715.72
2018-08-14T09:09:16.893Z,100711.89
2018-08-14T09:11:21.836Z,100714.39
2018-08-14T09:13:27.050Z,100715.20
2018-08-14T09:15:32.233Z,100719.97
2018-08-14T09:17:37.751Z,100711.16
2018-08-14T09:19:42.856Z,100719.73
2018-08-14T09:21:47.898Z,100717.86
2018-08-14T09:23:52.850Z,100717.20
2018-08-14T09:25:58.101Z,100713.33
2018-08-14T09:28:03.498Z,100718.62
2018-08-14T09:30:13.439Z,100715.37
2018-08-14T09:32:18.531Z,100722.19
2018-08-14T09:34:23.656Z,100730.34
2018-08-14T09:36:28.614Z,100732.36
2018-08-14T09:38:33.565Z,100730.66
2018-08-14T09:40:47.393Z,100739.95
2018-08-14T09:42:54.467Z,100729.94
2018-08-14T09:44:59.901Z,100735.16
2018-08-14T09:47:05.304Z,100728.55
2018-08-14T09:49:10.233Z,100733.91
2018-08-14T09:51:15.113Z,100739.50
2018-08-14T09:53:20.119Z,100725.32
2018-08-14T09:55:25.276Z,100732.34
2018-08-14T09:57:30.207Z,100736.33
2018-08-14T09:59:35.120Z,100738.94
2018-08-14T10:01:45.175Z,100736.97
2018-08-14T10:03:55.808Z,100733.75
2018-08-14T10:06:05.582Z,100741.05
2018-08-14T10:08:15.206Z,100742.27
2018-08-14T10:10:20.382Z,100743.82
2018-08-14T10:12:25.131Z,100750.61
2018-08-14T10:14:35.071Z,100733.31
2018-08-14T10:16:40.013Z,100743.52
2018-08-14T10:18:45.109Z,100745.81
2018-08-14T10:20:50.307Z,100752.11
2018-08-14T10:22:55.477Z,100757.22
2018-08-14T10:25:00.234Z,100750.74
2018-08-14T10:27:05.219Z,100752.95
2018-08-14T10:29:10.928Z,100747.80
2018-08-14T10:31:15.908Z,100745.73
2018-08-14T10:33:20.904Z,100748.77
2018-08-14T10:35:25.730Z,100749.11
2018-08-14T10:37:30.651Z,100757.78
2018-08-14T10:39:35.852Z,100756.09
2018-08-14T10:41:40.812Z,100757.72
2018-08-14T10:43:45.796Z,100746.92
2018-08-14T10:45:50.692Z,100742.68
2018-08-14T10:47:55.608Z,100753.70
2018-08-14T10:50:00.544Z,100759.80
2018-08-14T10:52:05.716Z,100763.29
2018-08-14T10:54:10.768Z,100763.99
2018-08-14T10:56:15.666Z,100772.78
2018-08-14T10:58:21.159Z,100777.21
2018-08-14T11:00:30.132Z,100767.22
2018-08-14T11:02:35.090Z,100762.94
2018-08-14T11:04:39.970Z,100766.89
2018-08-14T11:06:44.954Z,100771.59
2018-08-14T11:08:49.937Z,100782.41
2018-08-14T11:10:59.866Z,100779.48
2018-08-14T11:13:04.771Z,100770.78
2018-08-14T11:15:10.417Z,100783.47
2018-08-14T11:17:15.657Z,100772.53
2018-08-14T11:19:20.607Z,100780.86
2018-08-14T11:21:25.787Z,100779.92
2018-08-14T11:23:32.421Z,100785.14
2018-08-14T11:25:37.483Z,100784.13
2018-08-14T11:27:42.778Z,100778.10
2018-08-14T11:29:47.818Z,100779.91
2018-08-14T11:31:53.799Z,100790.38
2018-08-14T11:33:58.754Z,100784.25
2018-08-14T11:36:05.605Z,100792.98
2018-08-14T11:38:10.466Z,100791.67
2018-08-14T11:40:15.398Z,100788.63
2018-08-14T11:42:20.701Z,100796.98
2018-08-14T11:44:25.859Z,100799.93
2018-08-14T11:46:30.951Z,100783.81
2018-08-14T11:48:36.169Z,100796.53
2018-08-14T11:50:41.444Z,100747.65
2018-08-14T11:52:48.103Z,100798.12
2018-08-14T11:54:53.284Z,100801.30
2018-08-14T11:56:58.292Z,100795.99
2018-08-14T11:59:03.425Z,100805.61
2018-08-14T12:01:08.597Z,100801.38
2018-08-14T12:03:13.620Z,100808.30
2018-08-14T12:05:18.520Z,100814.83
2018-08-14T12:07:23.486Z,100804.39
2018-08-14T12:09:28.447Z,100803.08
2018-08-14T12:11:33.283Z,100811.33
2018-08-14T12:13:38.106Z,100804.39
2018-08-14T12:15:42.964Z,100805.26
2018-08-14T12:17:48.426Z,100797.89
2018-08-14T12:19:53.445Z,100796.59
2018-08-14T12:21:58.934Z,100800.94
2018-08-14T12:24:03.717Z,100802.69
2018-08-14T12:26:08.558Z,100797.45
2018-08-14T12:28:13.571Z,100791.80
2018-08-14T12:30:21.721Z,100797.45
2018-08-14T12:32:26.682Z,100800.95
2018-08-14T12:34:31.601Z,100810.52
2018-08-14T12:36:36.611Z,100797.02
2018-08-14T12:38:41.508Z,100811.83
2018-08-14T12:40:46.620Z,100795.28
2018-08-14T12:42:51.467Z,100811.39
2018-08-14T12:44:57.082Z,100808.30
2018-08-14T12:47:01.906Z,100801.81
2018-08-14T12:49:06.876Z,100806.16
2018-08-14T12:51:11.772Z,100809.68
2018-08-14T12:53:16.812Z,100810.08
2018-08-14T12:55:21.758Z,100813.14
2018-08-14T12:57:26.483Z,100818.39
2018-08-14T12:59:31.211Z,100798.68
2018-08-14T13:01:36.299Z,100810.06
2018-08-14T13:03:40.981Z,100812.22
2018-08-14T13:05:46.075Z,100806.63
2018-08-14T13:07:51.044Z,100816.52
2018-08-14T13:09:55.865Z,100813.56
2018-08-14T13:12:00.912Z,100810.91
2018-08-14T13:14:06.048Z,100819.25
2018-08-14T13:16:11.282Z,100824.45
2018-08-14T13:18:16.440Z,100815.69
2018-08-14T13:20:21.424Z,100817.42
2018-08-14T13:22:26.338Z,100823.52
2018-08-14T13:24:31.304Z,100823.08
2018-08-14T13:26:36.159Z,100820.05
2018-08-14T13:28:40.842Z,100827.46
2018-08-14T13:30:45.691Z,100825.66
2018-08-14T13:32:50.674Z,100826.48
2018-08-14T13:34:55.558Z,100827.80
2018-08-14T13:37:00.343Z,100833.53
2018-08-14T13:39:08.214Z,100824.70
2018-08-14T13:41:13.170Z,100824.25
2018-08-14T13:43:18.104Z,100829.08
2018-08-14T13:45:22.973Z,100827.25
2018-08-14T13:47:27.972Z,100829.38
2018-08-14T13:49:32.805Z,100829.35
2018-08-14T13:51:37.919Z,100840.69
2018-08-14T13:53:42.720Z,100840.75
2018-08-14T13:55:47.481Z,100838.19
2018-08-14T13:57:52.311Z,100838.13
2018-08-14T13:59:57.476Z,100845.50
2018-08-14T14:02:02.661Z,100836.36
2018-08-14T14:04:07.639Z,100837.63
2018-08-14T14:06:12.588Z,100840.72
2018-08-14T14:08:17.770Z,100840.30
2018-08-14T14:10:23.166Z,100844.21
2018-08-14T14:12:28.178Z,100835.42
2018-08-14T14:14:33.731Z,100846.36
2018-08-14T14:16:38.762Z,100844.19
2018-08-14T14:18:43.674Z,100844.04
2018-08-14T14:20:48.648Z,100843.09
2018-08-14T14:22:54.155Z,100842.83
2018-08-14T14:24:59.081Z,100853.77
2018-08-14T14:27:04.176Z,100853.32
2018-08-14T14:29:09.302Z,100856.42
2018-08-14T14:31:14.352Z,100841.94
2018-08-14T14:33:19.241Z,100853.31
2018-08-14T14:35:24.046Z,100853.34
2018-08-14T14:37:29.070Z,100858.95
2018-08-14T14:39:34.688Z,100856.72
2018-08-14T14:41:39.863Z,100877.22
2018-08-14T14:43:44.749Z,100851.59
2018-08-14T14:45:49.674Z,100855.00
2018-08-14T14:47:54.564Z,100852.47
2018-08-14T14:50:00.028Z,100854.77
2018-08-14T14:52:05.275Z,100849.10
2018-08-14T14:54:10.899Z,100862.97
2018-08-14T14:56:15.941Z,100865.88
2018-08-14T14:58:20.962Z,100863.41
2018-08-14T15:00:27.949Z,100859.88
2018-08-14T15:02:33.788Z,100864.99
2018-08-14T15:04:39.456Z,100862.74
2018-08-14T15:06:44.431Z,100871.52
2018-08-14T15:08:49.655Z,100883.61
2018-08-14T15:10:54.873Z,100867.00
2018-08-14T15:13:00.060Z,100876.39
2018-08-14T15:15:05.558Z,100877.21
2018-08-14T15:17:10.674Z,100881.86
2018-08-14T15:19:20.868Z,100879.85
2018-08-14T15:21:26.503Z,100890.26
2018-08-14T15:23:33.489Z,100886.38
2018-08-14T15:25:38.618Z,100881.21
2018-08-14T15:29:01.221Z,100872.98
2018-08-14T15:31:06.822Z,100873.33
2018-08-14T15:33:11.794Z,100877.50
2018-08-14T15:35:16.931Z,100892.34
2018-08-14T15:37:22.026Z,100885.81
2018-08-14T15:39:27.634Z,100894.11
2018-08-14T15:41:32.579Z,100880.33
2018-08-14T15:43:38.795Z,100878.19
2018-08-14T15:45:46.584Z,100897.06
2018-08-14T15:47:51.869Z,100893.08
2018-08-14T15:49:57.047Z,100892.33
2018-08-14T15:52:04.487Z,100894.99
2018-08-14T15:54:13.504Z,100894.16
2018-08-14T15:56:18.441Z,100896.33
2018-08-14T15:58:23.519Z,100901.11
2018-08-14T16:00:28.677Z,100901.13
2018-08-14T16:02:33.977Z,100908.95
2018-08-14T16:04:38.849Z,100901.55
2018-08-14T16:06:44.058Z,100906.77
2018-08-14T16:08:49.893Z,100897.67
2018-08-14T16:10:54.847Z,100899.81
2018-08-14T16:12:59.760Z,100903.71
2018-08-14T16:15:04.934Z,100890.67
2018-08-14T16:17:09.937Z,100908.11
2018-08-14T16:19:16.044Z,100910.73
2018-08-14T16:21:21.070Z,100905.94
2018-08-14T16:23:26.106Z,100910.29
2018-08-14T16:25:31.275Z,100911.59
2018-08-14T16:27:36.899Z,100905.05
2018-08-14T16:29:42.350Z,100905.52
2018-08-14T16:31:47.438Z,100911.61
2018-08-14T16:33:53.505Z,100915.98
2018-08-14T16:35:58.606Z,100929.05
2018-08-14T16:38:03.725Z,100934.25
2018-08-14T16:40:08.972Z,100933.76
2018-08-14T16:42:14.298Z,100928.09
2018-08-14T16:44:19.267Z,100941.22
2018-08-14T16:46:24.488Z,100937.24
2018-08-14T16:48:29.567Z,100943.34
2018-08-14T16:50:34.479Z,100942.48
2018-08-14T16:52:39.365Z,100946.36
2018-08-14T16:54:44.445Z,100943.78
2018-08-14T16:56:50.408Z,100942.34
2018-08-14T16:58:55.331Z,100955.05
2018-08-14T17:01:00.495Z,100945.08
2018-08-14T17:03:07.473Z,100949.82
2018-08-14T17:05:12.546Z,100947.55
2018-08-14T17:07:17.678Z,100950.57
2018-08-14T17:09:22.738Z,100951.48
2018-08-14T17:11:27.633Z,100966.24
2018-08-14T17:13:32.751Z,100959.70
2018-08-14T17:15:37.663Z,100964.02
2018-08-14T17:17:42.809Z,100970.56
2018-08-14T17:19:45.714Z,100961.72
2018-08-14T17:21:48.733Z,100968.69
2018-08-14T17:23:53.857Z,100964.19
2018-08-14T17:25:58.804Z,100967.35
2018-08-14T17:28:03.679Z,100963.05
2018-08-14T17:30:15.270Z,100966.53
2018-08-14T17:32:20.801Z,100961.72
2018-08-14T17:34:26.131Z,100961.70
2018-08-14T17:36:31.240Z,100971.70
2018-08-14T17:38:36.283Z,100967.78
2018-08-14T17:40:45.132Z,100966.95
2018-08-14T17:42:50.308Z,100972.91
2018-08-14T17:44:55.907Z,100974.19
2018-08-14T17:47:01.329Z,100973.15
2018-08-14T17:49:06.673Z,100983.98
2018-08-14T17:51:11.989Z,100979.13
2018-08-14T17:53:17.113Z,100984.81
2018-08-14T17:55:22.534Z,100970.70
2018-08-14T17:57:27.433Z,100981.88
2018-08-14T17:59:32.371Z,100979.91
2018-08-14T18:01:37.851Z,100984.80
2018-08-14T18:03:43.350Z,100990.44
2018-08-14T18:05:48.494Z,100990.97
2018-08-14T18:07:54.514Z,100993.67
2018-08-14T18:10:00.696Z,100993.60
2018-08-14T18:19:53.790Z,101007.73
2018-08-14T18:21:59.052Z,101005.44
2018-08-14T18:24:07.082Z,101008.86
2018-08-14T18:26:15.160Z,101012.67
2018-08-14T18:28:22.488Z,101013.90
2018-08-14T18:30:29.559Z,101018.91
2018-08-14T18:32:36.380Z,101014.09
2018-08-14T18:34:41.229Z,101013.23
2018-08-14T18:36:46.212Z,101018.25
2018-08-14T18:38:51.266Z,101015.03
2018-08-14T18:40:56.879Z,101013.60
2018-08-14T18:43:01.941Z,101011.33
2018-08-14T18:45:09.238Z,101023.09
2018-08-14T18:47:14.220Z,101025.28
2018-08-14T18:49:19.300Z,101028.57
2018-08-14T18:51:24.338Z,101036.23
2018-08-14T18:53:29.553Z,101033.30
2018-08-14T18:55:34.576Z,101030.98
2018-08-14T18:57:41.684Z,101028.45
2018-08-14T18:59:46.959Z,101042.03
2018-08-14T19:01:52.363Z,101046.07
2018-08-14T19:03:57.999Z,101049.75
2018-08-14T19:06:03.434Z,101053.77
2018-08-14T19:08:09.927Z,101054.45
2018-08-14T19:10:17.519Z,101054.40
2018-08-14T19:12:28.439Z,101054.10
2018-08-14T19:14:33.700Z,101048.64
2018-08-14T19:16:39.100Z,101058.22
2018-08-14T19:18:44.589Z,101061.03
2018-08-14T19:20:50.169Z,101046.77
2018-08-14T19:22:55.368Z,101064.80
2018-08-14T19:25:00.404Z,101069.72
2018-08-14T19:27:05.918Z,101069.21
2018-08-14T19:29:12.623Z,101071.71
2018-08-14T19:31:17.674Z,101074.66
2018-08-14T19:33:24.483Z,101079.05
2018-08-14T19:35:29.938Z,101086.30
2018-08-14T19:37:39.220Z,101082.77
2018-08-14T19:39:47.858Z,101089.67
2018-08-14T19:41:54.557Z,101091.02
2018-08-14T19:44:03.088Z,101097.64
2018-08-14T19:46:10.534Z,101097.13
2018-08-14T19:48:16.194Z,101097.59
2018-08-14T19:50:22.940Z,101092.62
2018-08-14T19:52:30.393Z,101099.04
2018-08-14T19:54:36.962Z,101101.67
2018-08-14T19:56:43.154Z,101106.36
2018-08-14T19:58:50.245Z,101106.53
2018-08-14T20:00:56.267Z,101103.05
2018-08-14T20:03:01.877Z,101102.64
2018-08-14T20:05:13.203Z,101103.89
2018-08-14T20:07:18.660Z,101100.36
2018-08-14T20:09:26.622Z,101107.79
2018-08-14T20:11:33.316Z,101094.87
2018-08-14T20:13:39.935Z,101109.19
2018-08-14T20:15:50.219Z,101116.00
2018-08-14T20:17:55.497Z,101116.23
2018-08-14T20:20:01.135Z,101112.42
2018-08-14T20:22:07.441Z,101110.92
2018-08-14T20:24:12.585Z,101112.86
2018-08-14T20:26:18.067Z,101106.89
2018-08-14T20:28:24.442Z,101107.77
2018-08-14T20:30:29.635Z,101117.92
2018-08-14T20:32:34.712Z,101117.56
2018-08-14T20:34:40.518Z,101118.30
2018-08-14T20:36:45.706Z,101111.24
2018-08-14T20:38:50.867Z,101111.41
2018-08-14T20:40:56.027Z,101108.88
2018-08-14T20:43:01.419Z,101114.13
2018-08-14T20:45:10.380Z,101111.43
2018-08-14T20:47:16.928Z,101105.02
2018-08-14T20:49:22.449Z,101109.66
2018-08-14T20:51:28.930Z,101095.23
2018-08-14T20:53:33.924Z,101119.98
2018-08-14T20:55:38.867Z,101114.87
2018-08-14T20:57:44.574Z,101120.34
2018-08-14T20:59:51.232Z,101116.05
2018-08-14T21:01:56.556Z,101120.42
2018-08-14T21:04:01.759Z,101110.98
2018-08-14T21:06:06.956Z,101134.72
2018-08-14T21:08:12.184Z,101125.70
2018-08-14T21:10:19.100Z,101136.30
2018-08-14T21:12:29.281Z,101136.40
2018-08-14T21:14:34.603Z,101134.55
2018-08-14T21:16:40.904Z,101132.73
2018-08-14T21:18:47.191Z,101133.94
2018-08-14T21:20:52.668Z,101139.84
2018-08-14T21:22:57.704Z,101136.53
2018-08-14T21:25:02.688Z,101127.12
2018-08-14T21:27:07.766Z,101142.88
2018-08-14T21:29:13.155Z,101146.32
2018-08-14T21:31:18.098Z,101136.97
2018-08-14T21:33:23.061Z,101141.85
2018-08-14T21:35:27.963Z,101139.77
2018-08-14T21:37:33.084Z,101140.35
2018-08-14T21:39:38.146Z,101145.87
2018-08-14T21:41:43.038Z,101145.41
2018-08-14T21:43:48.260Z,101155.72
2018-08-14T21:45:53.146Z,101153.83
2018-08-14T21:47:58.135Z,101153.95
2018-08-14T21:50:03.556Z,101162.51
2018-08-14T21:52:08.716Z,101161.92
2018-08-14T21:54:14.141Z,101165.93
2018-08-14T21:56:19.273Z,101169.16
2018-08-14T21:58:24.265Z,101165.31
2018-08-14T22:01:32.025Z,101169.20
2018-08-14T22:03:42.779Z,101170.67
2018-08-14T22:05:47.630Z,101178.41
2018-08-14T22:07:52.565Z,101181.34
2018-08-14T22:09:57.652Z,101179.80
2018-08-14T22:12:02.700Z,101178.94
2018-08-14T22:14:07.489Z,101176.13
2018-08-14T22:16:12.614Z,101187.17
2018-08-14T22:18:18.054Z,101194.64
2018-08-14T22:20:22.981Z,101195.58
2018-08-14T22:22:28.079Z,101193.13
2018-08-14T22:24:33.030Z,101193.95
2018-08-14T22:26:38.529Z,101191.52
2018-08-14T22:28:43.428Z,101190.19
2018-08-14T22:30:48.694Z,101187.55
2018-08-14T22:32:53.532Z,101192.87
2018-08-14T22:34:58.407Z,101195.02
2018-08-14T22:37:03.236Z,101203.95
2018-08-14T22:39:10.321Z,101200.27
2018-08-14T22:41:15.412Z,101208.58
2018-08-14T22:43:20.251Z,101199.73
2018-08-14T22:45:25.369Z,101202.41
2018-08-14T22:47:30.367Z,101202.64
2018-08-14T22:49:35.268Z,101202.79
2018-08-14T22:51:40.289Z,101200.75
2018-08-14T22:53:45.325Z,101198.05
2018-08-14T22:55:50.305Z,101197.70
2018-08-14T22:57:55.226Z,101196.45
2018-08-14T23:00:00.956Z,101194.48
2018-08-14T23:02:05.914Z,101201.00
2018-08-14T23:04:10.942Z,101192.55
2018-08-14T23:06:15.946Z,101194.55
2018-08-14T23:08:21.160Z,101191.15
2018-08-14T23:10:26.273Z,101195.01
2018-08-14T23:12:31.327Z,101191.17
2018-08-14T23:14:36.368Z,101199.14
2018-08-14T23:16:41.386Z,101201.88
2018-08-14T23:18:46.601Z,101205.46
2018-08-14T23:20:51.487Z,101201.45
2018-08-14T23:22:56.326Z,101204.11
2018-08-14T23:25:01.331Z,101201.34
2018-08-14T23:27:06.678Z,101171.53
2018-08-14T23:29:12.200Z,101198.58
2018-08-14T23:31:17.433Z,101194.33
2018-08-14T23:33:22.481Z,101197.31
2018-08-14T23:35:27.405Z,101189.63
2018-08-14T23:37:32.398Z,101192.16
2018-08-14T23:39:37.338Z,101184.41
2018-08-14T23:41:43.397Z,101184.63
2018-08-14T23:43:48.387Z,101186.48
2018-08-14T23:45:53.307Z,101190.31
2018-08-14T23:47:59.534Z,101189.37
2018-08-14T23:50:05.429Z,101192.55
2018-08-14T23:52:10.357Z,101188.43
2018-08-14T23:54:15.391Z,101190.80
2018-08-14T23:56:20.352Z,101192.00
2018-08-14T23:58:25.214Z,101186.06
